createdAt,value
2023-03-06T00:00:49.284Z,99446.75
2023-03-06T00:03:16.700Z,99447.19
2023-03-06T00:05:43.475Z,99443.88
2023-03-06T00:08:10.572Z,99440.78
2023-03-06T00:10:40.542Z,99440.16
2023-03-06T00:13:14.837Z,99451.22
2023-03-06T00:15:42.675Z,99442.25
2023-03-06T00:18:09.415Z,99433.91
2023-03-06T00:20:36.687Z,99419.28
2023-03-06T00:23:03.658Z,99423.66
2023-03-06T00:25:30.407Z,99409.91
2023-03-06T00:27:57.193Z,99420.06
2023-03-06T00:30:24.864Z,99403.38
2023-03-06T00:32:53.304Z,99402.91
2023-03-06T00:35:20.579Z,99410.84
2023-03-06T00:37:47.396Z,99404.94
2023-03-06T00:40:17.180Z,99402.88
2023-03-06T00:42:44.391Z,99391.13
2023-03-06T00:45:11.217Z,99392.97
2023-03-06T00:47:38.030Z,99392.75
2023-03-06T00:50:06.926Z,99389.00
2023-03-06T00:52:33.793Z,99386.50
2023-03-06T00:55:00.411Z,99389.22
2023-03-06T00:57:27.097Z,99383.59
2023-03-06T00:59:53.683Z,99380.06
2023-03-06T01:02:20.369Z,99371.53
2023-03-06T01:04:47.542Z,99373.81
2023-03-06T01:07:14.200Z,99372.75
2023-03-06T01:09:41.135Z,99372.75
2023-03-06T01:12:08.166Z,99368.78
2023-03-06T01:14:34.918Z,99367.94
2023-03-06T01:17:01.552Z,99366.50
2023-03-06T01:19:28.193Z,99365.41
2023-03-06T01:21:54.920Z,99364.19
2023-03-06T01:24:23.999Z,99360.63
2023-03-06T01:26:50.598Z,99360.63
2023-03-06T01:29:17.305Z,99364.19
2023-03-06T01:31:44.032Z,99347.31
2023-03-06T01:34:10.730Z,99340.84
2023-03-06T01:36:37.379Z,99340.66
2023-03-06T01:39:04.119Z,99337.94
2023-03-06T01:41:32.750Z,99338.53
2023-03-06T01:43:59.626Z,99335.38
2023-03-06T01:46:28.967Z,99327.03
2023-03-06T01:49:21.856Z,99323.06
2023-03-06T01:52:00.614Z,99319.88
2023-03-06T01:54:36.392Z,99319.88
2023-03-06T01:57:08.514Z,99308.59
2023-03-06T01:59:38.559Z,99315.06
2023-03-06T02:02:08.747Z,99308.00
2023-03-06T02:04:39.022Z,99305.44
2023-03-06T02:07:07.535Z,99298.13
2023-03-06T02:09:35.611Z,99293.69
2023-03-06T02:12:08.362Z,99288.34
2023-03-06T02:14:35.235Z,99281.22
2023-03-06T02:17:02.584Z,99281.03
2023-03-06T02:19:51.020Z,99274.53
2023-03-06T02:22:17.662Z,99273.94
2023-03-06T02:25:02.028Z,99261.25
2023-03-06T02:27:28.817Z,99258.31
2023-03-06T02:29:55.601Z,99262.91
2023-03-06T02:32:22.243Z,99259.16
2023-03-06T02:34:57.960Z,99254.09
2023-03-06T02:37:27.491Z,99253.09
2023-03-06T02:40:00.721Z,99236.22
2023-03-06T02:42:31.400Z,99241.66
2023-03-06T02:45:00.870Z,99230.19
2023-03-06T02:47:27.479Z,99228.28
2023-03-06T02:49:54.098Z,99222.66
2023-03-06T02:52:20.704Z,99228.28
2023-03-06T02:54:47.323Z,99214.97
2023-03-06T02:57:13.967Z,99213.22
2023-03-06T02:59:40.695Z,99212.41
2023-03-06T03:02:07.429Z,99210.31
2023-03-06T03:04:34.852Z,99211.56
2023-03-06T03:07:01.595Z,99194.88
2023-03-06T03:09:28.560Z,99189.44
2023-03-06T03:11:55.325Z,99191.09
2023-03-06T03:14:23.978Z,99190.84
2023-03-06T03:16:50.569Z,99193.50
2023-03-06T03:19:17.215Z,99186.56
2023-03-06T03:21:43.885Z,99181.97
2023-03-06T03:24:10.590Z,99182.03
2023-03-06T03:26:37.311Z,99170.97
2023-03-06T03:29:05.171Z,99169.66
2023-03-06T03:31:32.606Z,99163.84
2023-03-06T03:34:00.135Z,99163.66
2023-03-06T03:36:27.569Z,99157.59
2023-03-06T03:38:54.549Z,99159.88
2023-03-06T03:41:21.656Z,99157.41
2023-03-06T03:43:48.446Z,99153.78
2023-03-06T03:46:15.176Z,99149.84
2023-03-06T03:48:41.833Z,99146.47
2023-03-06T03:51:11.263Z,99136.44
2023-03-06T03:53:38.803Z,99136.44
2023-03-06T03:56:06.357Z,99137.88
2023-03-06T03:58:32.984Z,99128.09
2023-03-06T04:00:59.808Z,99120.53
2023-03-06T04:03:26.485Z,99115.25
2023-03-06T04:05:55.426Z,99118.22
2023-03-06T04:08:22.535Z,99103.00
2023-03-06T04:10:49.150Z,99109.69
2023-03-06T04:13:15.921Z,99104.66
2023-03-06T04:15:42.500Z,99093.94
2023-03-06T04:18:09.104Z,99094.84
2023-03-06T04:20:35.691Z,99094.19
2023-03-06T04:23:02.380Z,99087.88
2023-03-06T04:25:28.986Z,99085.19
2023-03-06T04:27:55.609Z,99086.63
2023-03-06T04:30:22.494Z,99080.97
2023-03-06T04:32:49.372Z,99084.00
2023-03-06T04:35:16.567Z,99076.69
2023-03-06T04:37:43.287Z,99076.69
2023-03-06T04:40:17.717Z,99074.94
2023-03-06T04:42:44.453Z,99062.88
2023-03-06T04:45:11.422Z,99057.00
2023-03-06T04:47:38.018Z,99062.28
2023-03-06T04:50:05.078Z,99064.16
2023-03-06T04:52:32.051Z,99067.47
2023-03-06T04:54:58.815Z,99056.63
2023-03-06T04:57:25.431Z,99051.59
2023-03-06T04:59:52.066Z,99044.84
2023-03-06T05:02:18.729Z,99049.38
2023-03-06T05:04:45.341Z,99034.81
2023-03-06T05:07:12.101Z,99035.75
2023-03-06T05:09:39.194Z,99032.34
2023-03-06T05:12:06.059Z,99032.09
2023-03-06T05:14:32.736Z,99031.16
2023-03-06T05:16:59.479Z,99028.19
2023-03-06T05:19:26.084Z,99027.28
2023-03-06T05:21:52.753Z,99021.88
2023-03-06T05:24:19.370Z,99019.88
2023-03-06T05:26:46.039Z,99023.44
2023-03-06T05:29:12.723Z,99027.19
2023-03-06T05:31:39.392Z,99019.66
2023-03-06T05:34:06.025Z,99023.28
2023-03-06T05:36:33.119Z,99018.72
2023-03-06T05:38:59.701Z,99011.00
2023-03-06T05:41:26.316Z,99013.50
2023-03-06T05:43:53.382Z,99012.66
2023-03-06T05:46:20.102Z,99012.66
2023-03-06T05:48:47.101Z,99008.53
2023-03-06T05:51:13.731Z,99009.81
2023-03-06T05:53:40.340Z,98998.13
2023-03-06T05:56:11.238Z,98998.50
2023-03-06T05:58:37.925Z,99003.13
2023-03-06T06:01:14.707Z,98996.69
2023-03-06T06:03:41.549Z,98988.25
2023-03-06T06:06:10.799Z,98981.84
2023-03-06T06:08:38.325Z,98987.97
2023-03-06T06:11:06.208Z,98975.47
2023-03-06T06:13:33.193Z,98970.34
2023-03-06T06:16:00.333Z,98972.00
2023-03-06T06:18:27.012Z,98972.84
2023-03-06T06:20:55.866Z,98967.66
2023-03-06T06:23:22.672Z,98967.41
2023-03-06T06:25:49.278Z,98959.38
2023-03-06T06:28:15.891Z,98963.75
2023-03-06T06:30:42.595Z,98959.13
2023-03-06T06:33:09.218Z,98961.72
2023-03-06T06:35:37.360Z,98969.97
2023-03-06T06:38:03.997Z,98957.84
2023-03-06T06:40:30.682Z,98956.09
2023-03-06T06:42:57.293Z,98957.66
2023-03-06T06:45:23.917Z,98947.03
2023-03-06T06:47:50.718Z,98956.59
2023-03-06T06:50:17.499Z,98953.41
2023-03-06T06:52:44.229Z,98955.66
2023-03-06T06:55:11.766Z,98945.66
2023-03-06T06:57:38.532Z,98957.13
2023-03-06T07:00:06.983Z,98956.28
2023-03-06T07:02:33.697Z,98940.81
2023-03-06T07:05:04.752Z,98948.72
2023-03-06T07:07:34.759Z,98947.09
2023-03-06T07:10:01.572Z,98948.84
2023-03-06T07:12:28.182Z,98937.19
2023-03-06T07:14:54.880Z,98944.03
2023-03-06T07:17:21.537Z,98940.25
2023-03-06T07:19:48.642Z,98936.03
2023-03-06T07:22:15.343Z,98933.19
2023-03-06T07:24:41.981Z,98928.78
2023-03-06T07:27:08.625Z,98932.69
2023-03-06T07:29:35.451Z,98934.84
2023-03-06T07:32:02.281Z,98936.47
2023-03-06T07:34:29.475Z,98928.91
2023-03-06T07:36:56.106Z,98932.25
2023-03-06T07:39:22.723Z,98925.50
2023-03-06T07:41:49.399Z,98923.16
2023-03-06T07:44:15.989Z,98918.78
2023-03-06T07:46:42.613Z,98917.03
2023-03-06T07:49:09.315Z,98924.47
2023-03-06T07:51:35.991Z,98925.66
2023-03-06T07:54:03.397Z,98923.56
2023-03-06T07:56:30.086Z,98917.53
2023-03-06T07:58:57.163Z,98930.28
2023-03-06T08:01:24.371Z,98932.06
2023-03-06T08:03:52.319Z,98925.56
2023-03-06T08:06:23.894Z,98924.84
2023-03-06T08:08:51.984Z,98924.75
2023-03-06T08:11:20.594Z,98915.53
2023-03-06T08:13:48.885Z,98918.34
2023-03-06T08:16:17.622Z,98909.84
2023-03-06T08:18:46.152Z,98917.66
2023-03-06T08:21:15.946Z,98915.03
2023-03-06T08:23:43.763Z,98919.16
2023-03-06T08:26:16.037Z,98915.38
2023-03-06T08:28:43.101Z,98912.88
2023-03-06T08:31:22.205Z,98904.25
2023-03-06T08:33:48.982Z,98916.06
2023-03-06T08:36:15.752Z,98911.81
2023-03-06T08:38:42.355Z,98914.78
2023-03-06T08:41:08.982Z,98915.00
2023-03-06T08:43:36.122Z,98915.66
2023-03-06T08:46:03.318Z,98914.72
2023-03-06T08:48:30.309Z,98905.78
2023-03-06T08:50:56.961Z,98902.47
2023-03-06T08:53:40.412Z,98907.84
2023-03-06T08:56:18.849Z,98904.81
2023-03-06T08:58:47.744Z,98898.91
2023-03-06T09:01:20.753Z,98897.56
2023-03-06T09:03:47.498Z,98898.50
2023-03-06T09:06:14.516Z,98895.56
2023-03-06T09:08:44.966Z,98897.94
2023-03-06T09:11:16.065Z,98893.94
2023-03-06T09:13:43.450Z,98891.38
2023-03-06T09:16:11.274Z,98891.94
2023-03-06T09:18:38.157Z,98890.22
2023-03-06T09:21:07.385Z,98887.34
2023-03-06T09:23:34.888Z,98873.50
2023-03-06T09:26:02.295Z,98872.38
2023-03-06T09:28:29.337Z,98868.59
2023-03-06T09:30:57.379Z,98870.97
2023-03-06T09:33:24.480Z,98874.28
2023-03-06T09:35:56.925Z,98856.13
2023-03-06T09:38:26.983Z,98868.59
2023-03-06T09:43:43.463Z,98864.78
2023-03-06T09:46:30.052Z,98851.56
2023-03-06T09:49:15.231Z,98848.38
2023-03-06T09:52:20.328Z,98848.84
2023-03-06T09:54:53.317Z,98845.91
2023-03-06T09:57:26.884Z,98844.91
2023-03-06T10:00:03.883Z,98850.69
2023-03-06T10:02:49.555Z,98842.25
2023-03-06T10:05:36.561Z,98842.50
2023-03-06T10:08:06.590Z,98839.19
2023-03-06T10:10:48.926Z,98838.63
2023-03-06T10:13:26.925Z,98837.28
2023-03-06T10:16:04.735Z,98832.34
2023-03-06T10:18:31.974Z,98847.75
2023-03-06T10:21:18.798Z,98836.38
2023-03-06T10:23:48.965Z,98846.59
2023-03-06T10:26:33.646Z,98837.06
2023-03-06T10:29:09.296Z,98841.97
2023-03-06T10:31:38.676Z,98836.44
2023-03-06T10:34:07.898Z,98831.06
2023-03-06T10:36:34.605Z,98837.97
2023-03-06T10:39:09.856Z,98826.63
2023-03-06T10:41:38.346Z,98818.28
2023-03-06T10:44:06.403Z,98821.13
2023-03-06T10:46:45.911Z,98821.28
2023-03-06T10:49:26.148Z,98821.97
2023-03-06T10:52:19.137Z,98818.75
2023-03-06T10:54:48.782Z,98816.97
2023-03-06T10:57:21.136Z,98811.41
2023-03-06T10:59:55.774Z,98816.38
2023-03-06T11:02:36.435Z,98811.22
2023-03-06T11:05:05.790Z,98806.88
2023-03-06T11:07:36.193Z,98811.78
2023-03-06T11:10:16.569Z,98796.75
2023-03-06T11:12:44.052Z,98801.44
2023-03-06T11:15:24.465Z,98802.28
2023-03-06T11:17:52.811Z,98803.28
2023-03-06T11:20:24.354Z,98804.25
2023-03-06T11:23:07.604Z,98801.94
2023-03-06T11:25:42.288Z,98799.19
2023-03-06T11:28:26.928Z,98789.50
2023-03-06T11:31:16.517Z,98785.47
2023-03-06T11:33:52.701Z,98786.09
2023-03-06T11:36:39.101Z,98787.22
2023-03-06T11:39:18.366Z,98793.50
2023-03-06T11:42:00.121Z,98791.81
2023-03-06T11:44:42.136Z,98779.31
2023-03-06T11:47:26.289Z,98783.69
2023-03-06T11:50:08.243Z,98778.22
2023-03-06T11:52:58.570Z,98770.03
2023-03-06T11:55:47.771Z,98767.06
2023-03-06T11:58:38.271Z,98768.66
2023-03-06T12:01:13.089Z,98764.88
2023-03-06T12:03:47.362Z,98753.72
2023-03-06T12:06:38.749Z,98754.63
2023-03-06T12:09:14.481Z,98749.78
2023-03-06T12:12:01.674Z,98747.06
2023-03-06T12:14:50.071Z,98743.06
2023-03-06T12:17:26.602Z,98739.88
2023-03-06T12:20:08.085Z,98745.38
2023-03-06T12:22:34.670Z,98738.03
2023-03-06T12:25:32.954Z,98730.22
2023-03-06T12:28:27.002Z,98736.59
2023-03-06T12:31:24.615Z,98736.31
2023-03-06T12:34:12.053Z,98731.97
2023-03-06T12:36:43.156Z,98723.72
2023-03-06T12:39:48.576Z,98726.97
2023-03-06T12:42:23.575Z,98718.75
2023-03-06T12:45:10.650Z,98716.00
2023-03-06T12:47:45.270Z,98714.91
2023-03-06T12:50:34.167Z,98711.06
2023-03-06T12:53:04.310Z,98706.72
2023-03-06T12:55:47.365Z,98697.91
2023-03-06T12:58:29.257Z,98704.34
2023-03-06T13:01:03.696Z,98697.25
2023-03-06T13:03:52.517Z,98691.81
2023-03-06T13:06:50.222Z,98687.38
2023-03-06T13:09:35.241Z,98689.56
2023-03-06T13:12:19.885Z,98678.03
2023-03-06T13:14:54.138Z,98686.28
2023-03-06T13:17:24.156Z,98675.84
2023-03-06T13:20:13.969Z,98668.72
2023-03-06T13:22:48.001Z,98670.41
2023-03-06T13:25:18.134Z,98668.22
2023-03-06T13:28:03.372Z,98660.00
2023-03-06T13:30:39.020Z,98660.53
2023-03-06T13:33:25.889Z,98663.25
2023-03-06T13:36:00.603Z,98659.69
2023-03-06T13:38:35.984Z,98655.56
2023-03-06T13:41:20.905Z,98646.75
2023-03-06T13:43:58.419Z,98656.56
2023-03-06T13:46:35.350Z,98656.59
2023-03-06T13:49:07.790Z,98653.28
2023-03-06T13:52:21.251Z,98647.53
2023-03-06T13:55:18.287Z,98660.53
2023-03-06T13:57:50.794Z,98643.16
2023-03-06T14:00:29.375Z,98642.91
2023-03-06T14:03:24.244Z,98641.25
2023-03-06T14:05:52.045Z,98633.88
2023-03-06T14:08:21.620Z,98643.22
2023-03-06T14:10:59.296Z,98640.22
2023-03-06T14:13:41.883Z,98633.97
2023-03-06T14:16:22.618Z,98638.34
2023-03-06T14:18:52.105Z,98621.69
2023-03-06T14:21:28.659Z,98638.59
2023-03-06T14:24:03.592Z,98646.81
2023-03-06T14:26:41.473Z,98630.88
2023-03-06T14:29:21.159Z,98627.50
2023-03-06T14:31:51.111Z,98631.59
2023-03-06T14:34:33.233Z,98634.81
2023-03-06T14:37:05.718Z,98623.59
2023-03-06T14:39:39.436Z,98629.06
2023-03-06T14:42:06.078Z,98628.25
2023-03-06T14:44:32.779Z,98614.84
2023-03-06T14:47:23.322Z,98617.00
2023-03-06T14:50:28.433Z,98622.47
2023-03-06T14:53:25.906Z,98614.31
2023-03-06T14:56:02.495Z,98612.34
2023-03-06T14:58:51.329Z,98606.09
2023-03-06T15:01:37.069Z,98609.41
2023-03-06T15:04:16.943Z,98615.16
2023-03-06T15:06:45.031Z,98593.03
2023-03-06T15:09:30.241Z,98608.25
2023-03-06T15:12:18.488Z,98599.22
2023-03-06T15:15:04.649Z,98590.63
2023-03-06T15:17:38.131Z,98597.47
2023-03-06T15:20:09.828Z,98585.09
2023-03-06T15:22:41.786Z,98594.59
2023-03-06T15:25:24.708Z,98594.06
2023-03-06T15:28:01.410Z,98589.41
2023-03-06T15:30:31.488Z,98607.28
2023-03-06T15:33:18.073Z,98587.19
2023-03-06T15:36:00.874Z,98584.72
2023-03-06T15:38:34.030Z,98586.03
2023-03-06T15:41:02.193Z,98583.31
2023-03-06T15:43:35.156Z,98572.97
2023-03-06T15:46:01.891Z,98575.16
2023-03-06T15:48:28.884Z,98579.19
2023-03-06T15:50:55.749Z,98574.03
2023-03-06T15:53:22.941Z,98578.66
2023-03-06T15:55:51.353Z,98564.22
2023-03-06T15:58:23.484Z,98565.63
2023-03-06T16:00:50.663Z,98558.75
2023-03-06T16:03:17.962Z,98558.75
2023-03-06T16:05:46.091Z,98563.72
2023-03-06T16:08:15.647Z,98557.13
2023-03-06T16:10:44.642Z,98545.63
2023-03-06T16:13:15.185Z,98547.00
2023-03-06T16:15:47.723Z,98540.25
2023-03-06T16:18:15.709Z,98542.44
2023-03-06T16:20:44.065Z,98539.97
2023-03-06T16:23:11.005Z,98547.31
2023-03-06T16:25:40.492Z,98542.41
2023-03-06T16:28:16.929Z,98544.22
2023-03-06T16:30:45.095Z,98533.06
2023-03-06T16:33:12.783Z,98535.25
2023-03-06T16:35:41.329Z,98546.16
2023-03-06T16:38:10.570Z,98542.91
2023-03-06T16:40:38.053Z,98544.81
2023-03-06T16:43:05.534Z,98542.34
2023-03-06T16:45:37.331Z,98548.91
2023-03-06T16:48:06.345Z,98545.59
2023-03-06T16:50:37.988Z,98546.13
2023-03-06T16:53:06.080Z,98544.47
2023-03-06T16:55:33.018Z,98537.84
2023-03-06T16:58:01.184Z,98544.31
2023-03-06T17:00:33.782Z,98544.28
2023-03-06T17:03:01.807Z,98540.56
2023-03-06T17:05:29.350Z,98550.06
2023-03-06T17:07:56.456Z,98532.91
2023-03-06T17:10:26.358Z,98536.91
2023-03-06T17:12:53.851Z,98543.78
2023-03-06T17:15:21.012Z,98535.38
2023-03-06T17:17:47.836Z,98534.50
2023-03-06T17:20:18.362Z,98537.16
2023-03-06T17:22:46.024Z,98539.91
2023-03-06T17:25:12.686Z,98536.09
2023-03-06T17:27:39.333Z,98544.84
2023-03-06T17:30:06.913Z,98542.13
2023-03-06T17:32:33.748Z,98539.41
2023-03-06T17:35:00.577Z,98528.47
2023-03-06T17:37:27.259Z,98530.38
2023-03-06T17:39:53.971Z,98538.59
2023-03-06T17:42:20.699Z,98533.66
2023-03-06T17:44:48.362Z,98532.19
2023-03-06T17:47:15.231Z,98537.59
2023-03-06T17:49:41.879Z,98530.78
2023-03-06T17:52:08.662Z,98533.75
2023-03-06T17:54:35.949Z,98526.66
2023-03-06T17:57:04.495Z,98536.78
2023-03-06T17:59:34.247Z,98533.75
2023-03-06T18:02:01.748Z,98539.72
2023-03-06T18:04:28.829Z,98551.22
2023-03-06T18:06:57.034Z,98548.63
2023-03-06T18:09:25.270Z,98551.72
2023-03-06T18:11:51.937Z,98555.53
2023-03-06T18:14:18.761Z,98566.03
2023-03-06T18:16:45.565Z,98567.22
2023-03-06T18:19:12.551Z,98565.63
2023-03-06T18:21:40.047Z,98563.22
2023-03-06T18:24:07.300Z,98580.16
2023-03-06T18:26:33.964Z,98570.47
2023-03-06T18:29:03.847Z,98572.72
2023-03-06T18:31:34.681Z,98575.03
2023-03-06T18:34:04.350Z,98579.81
2023-03-06T18:36:33.085Z,98579.34
2023-03-06T18:39:03.607Z,98583.03
2023-03-06T18:41:31.104Z,98577.38
2023-03-06T18:43:59.959Z,98576.22
2023-03-06T18:46:30.454Z,98579.00
2023-03-06T18:48:57.072Z,98565.16
2023-03-06T18:51:23.746Z,98569.56
2023-03-06T18:53:50.504Z,98566.66
2023-03-06T18:56:21.175Z,98568.56
2023-03-06T18:58:54.912Z,98564.34
2023-03-06T19:01:23.204Z,98565.41
2023-03-06T19:03:50.469Z,98559.56
2023-03-06T19:06:18.127Z,98566.91
2023-03-06T19:08:44.833Z,98560.41
2023-03-06T19:11:16.137Z,98562.22
2023-03-06T19:13:43.933Z,98563.44
2023-03-06T19:16:17.864Z,98553.22
2023-03-06T19:18:44.618Z,98557.69
2023-03-06T19:21:16.391Z,98561.81
2023-03-06T19:23:43.543Z,98557.59
2023-03-06T19:26:10.508Z,98552.59
2023-03-06T19:28:40.043Z,98552.00
2023-03-06T19:31:11.954Z,98550.81
2023-03-06T19:33:39.554Z,98545.91
2023-03-06T19:36:07.694Z,98542.03
2023-03-06T19:38:34.340Z,98549.97
2023-03-06T19:41:01.068Z,98552.59
2023-03-06T19:43:29.207Z,98549.66
2023-03-06T19:45:56.630Z,98546.22
2023-03-06T19:48:23.978Z,98548.41
2023-03-06T19:50:50.589Z,98550.09
2023-03-06T19:53:17.317Z,98545.69
2023-03-06T19:55:43.938Z,98540.69
2023-03-06T19:58:11.256Z,98537.00
2023-03-06T20:00:38.783Z,98539.44
2023-03-06T20:03:05.440Z,98530.00
2023-03-06T20:05:32.205Z,98529.31
2023-03-06T20:07:58.844Z,98535.34
2023-03-06T20:10:25.476Z,98519.06
2023-03-06T20:12:52.093Z,98523.81
2023-03-06T20:15:20.431Z,98520.09
2023-03-06T20:17:47.359Z,98522.00
2023-03-06T20:20:14.924Z,98516.91
2023-03-06T20:22:41.739Z,98527.69
2023-03-06T20:25:08.579Z,98518.72
2023-03-06T20:27:35.317Z,98519.53
2023-03-06T20:30:01.987Z,98521.19
2023-03-06T20:32:28.648Z,98518.84
2023-03-06T20:34:55.544Z,98518.84
2023-03-06T20:37:22.191Z,98507.78
2023-03-06T20:39:48.753Z,98514.09
2023-03-06T20:42:15.439Z,98512.47
2023-03-06T20:44:42.651Z,98509.16
2023-03-06T20:47:09.740Z,98509.66
2023-03-06T20:49:36.803Z,98507.44
2023-03-06T20:52:03.677Z,98501.84
2023-03-06T20:54:30.686Z,98503.97
2023-03-06T20:56:57.563Z,98498.81
2023-03-06T20:59:24.151Z,98501.84
2023-03-06T21:01:50.896Z,98501.59
2023-03-06T21:04:17.621Z,98498.28
2023-03-06T21:06:46.856Z,98490.75
2023-03-06T21:09:17.695Z,98494.19
2023-03-06T21:11:45.404Z,98489.59
2023-03-06T21:14:13.797Z,98487.94
2023-03-06T21:16:41.125Z,98488.69
2023-03-06T21:19:07.882Z,98492.38
2023-03-06T21:21:35.789Z,98489.00
2023-03-06T21:24:05.671Z,98487.00
2023-03-06T21:26:35.877Z,98489.59
2023-03-06T21:29:03.695Z,98484.63
2023-03-06T21:31:31.907Z,98481.19
2023-03-06T21:33:59.198Z,98482.00
2023-03-06T21:36:27.167Z,98479.22
2023-03-06T21:38:54.582Z,98486.09
2023-03-06T21:41:27.105Z,98488.25
2023-03-06T21:43:56.580Z,98483.06
2023-03-06T21:46:24.507Z,98478.31
2023-03-06T21:48:51.160Z,98475.91
2023-03-06T21:51:20.316Z,98475.31
2023-03-06T21:53:48.514Z,98477.41
2023-03-06T21:56:18.000Z,98483.00
2023-03-06T21:58:45.467Z,98482.66
2023-03-06T22:01:16.158Z,98469.00
2023-03-06T22:03:43.537Z,98473.13
2023-03-06T22:06:13.447Z,98469.81
2023-03-06T22:08:40.974Z,98462.84
2023-03-06T22:11:09.806Z,98456.84
2023-03-06T22:13:37.607Z,98468.19
2023-03-06T22:16:05.522Z,98465.22
2023-03-06T22:18:32.905Z,98456.66
2023-03-06T22:20:59.747Z,98460.59
2023-03-06T22:23:29.257Z,98464.03
2023-03-06T22:25:55.889Z,98466.97
2023-03-06T22:28:22.646Z,98465.50
2023-03-06T22:30:49.517Z,98460.91
2023-03-06T22:33:16.725Z,98458.31
2023-03-06T22:35:43.452Z,98450.19
2023-03-06T22:38:10.574Z,98441.56
2023-03-06T22:40:37.199Z,98445.16
2023-03-06T22:43:03.797Z,98443.94
2023-03-06T22:45:34.654Z,98443.13
2023-03-06T22:48:10.665Z,98446.81
2023-03-06T22:50:37.907Z,98441.94
2023-03-06T22:53:04.548Z,98450.19
2023-03-06T22:55:31.181Z,98441.47
2023-03-06T22:57:57.830Z,98439.66
2023-03-06T23:00:25.597Z,98441.22
2023-03-06T23:02:52.310Z,98445.38
2023-03-06T23:05:19.538Z,98442.69
2023-03-06T23:07:46.198Z,98440.50
2023-03-06T23:10:12.815Z,98446.09
2023-03-06T23:12:41.720Z,98442.38
2023-03-06T23:15:08.425Z,98440.38
2023-03-06T23:17:35.234Z,98437.53
2023-03-06T23:20:06.066Z,98448.91
2023-03-06T23:22:32.750Z,98444.53
2023-03-06T23:24:59.393Z,98437.22
2023-03-06T23:27:26.571Z,98441.38
2023-03-06T23:29:58.889Z,98440.66
2023-03-06T23:32:26.234Z,98439.38
2023-03-06T23:34:53.204Z,98438.56
2023-03-06T23:37:19.828Z,98435.59
2023-03-06T23:39:46.441Z,98430.22
2023-03-06T23:42:13.108Z,98430.19
2023-03-06T23:44:39.700Z,98433.25
2023-03-06T23:47:06.349Z,98434.88
2023-03-06T23:49:33.835Z,98417.00
2023-03-06T23:52:00.653Z,98418.41
2023-03-06T23:54:27.834Z,98410.03
2023-03-06T23:56:54.600Z,98413.25
2023-03-06T23:59:21.646Z,98412.53
